Time;durP1;ratioP1;P1;durP2;ratioP2;P2;SDS_P1;SDS_P2;PMS_P1;PMS_P2;Temp;Humidity;BMP_temperature;BMP_pressure;BME280_temperature;BME280_humidity;BME280_pressure;Samples;Min_cycle;Max_cycle;Signal;HPM_P1;HPM_P2
2022/03/29 00:00:33;;;;;;;31.17;15.77;;;9.30;99.90;;;;;;5016712;28;20037;-64
2022/03/29 00:02:59;;;;;;;33.00;14.82;;;9.30;99.90;;;;;;5009718;28;20084;-62
2022/03/29 00:05:26;;;;;;;32.45;14.80;;;9.30;99.90;;;;;;5008637;28;20115;-63
2022/03/29 00:07:51;;;;;;;30.73;14.73;;;9.40;99.90;;;;;;5013304;28;20474;-64
2022/03/29 00:10:17;;;;;;;31.83;14.48;;;9.40;99.90;;;;;;5014435;28;20053;-62
2022/03/29 00:12:43;;;;;;;33.53;15.23;;;9.40;99.90;;;;;;5013810;28;20105;-62
2022/03/29 00:15:09;;;;;;;34.65;16.38;;;9.40;99.90;;;;;;5014726;28;20033;-62
2022/03/29 00:17:34;;;;;;;32.08;14.90;;;9.40;99.90;;;;;;5014595;28;20458;-62
2022/03/29 00:20:00;;;;;;;33.75;15.18;;;9.40;99.90;;;;;;5007788;28;20038;-63
2022/03/29 00:22:26;;;;;;;32.10;16.02;;;9.30;99.90;;;;;;5012962;28;20030;-62
2022/03/29 00:24:52;;;;;;;35.30;16.02;;;9.30;99.90;;;;;;5013604;28;20037;-63
2022/03/29 00:27:17;;;;;;;36.03;16.45;;;9.30;99.90;;;;;;5014372;28;20038;-63
2022/03/29 00:29:43;;;;;;;36.70;17.42;;;9.30;99.90;;;;;;5014171;28;20105;-63
2022/03/29 00:32:09;;;;;;;35.13;15.48;;;9.30;99.90;;;;;;5013285;28;20026;-63
2022/03/29 00:34:36;;;;;;;34.50;15.00;;;9.30;99.90;;;;;;5013954;28;20037;-63
2022/03/29 00:37:03;;;;;;;37.00;17.80;;;9.30;99.90;;;;;;5013394;28;20033;-63
2022/03/29 00:39:28;;;;;;;35.65;17.33;;;9.30;99.90;;;;;;5012568;28;20080;-63
2022/03/29 00:41:55;;;;;;;39.28;17.98;;;9.30;99.90;;;;;;5014235;28;20037;-63
2022/03/29 00:44:29;;;;;;;33.67;16.50;;;9.30;99.90;;;;;;5013545;28;20029;-63
2022/03/29 00:46:55;;;;;;;34.97;17.80;;;9.30;99.90;;;;;;5013973;28;20101;-63
2022/03/29 00:49:20;;;;;;;34.92;16.92;;;9.30;99.90;;;;;;5013910;28;20122;-62
2022/03/29 00:51:46;;;;;;;41.40;18.08;;;9.30;99.90;;;;;;5013311;28;20048;-62
2022/03/29 00:54:12;;;;;;;37.13;17.05;;;9.30;99.90;;;;;;5012725;28;20037;-63
2022/03/29 00:56:39;;;;;;;36.08;17.23;;;9.30;99.90;;;;;;5013837;28;20030;-62
2022/03/29 00:59:05;;;;;;;34.15;16.80;;;9.30;99.90;;;;;;5013344;28;20022;-62
2022/03/29 01:01:30;;;;;;;41.40;18.05;;;9.30;99.90;;;;;;5013317;28;20045;-62
2022/03/29 01:03:57;;;;;;;39.13;17.27;;;9.30;99.90;;;;;;5012122;28;20018;-63
2022/03/29 01:06:23;;;;;;;36.60;17.20;;;9.30;99.90;;;;;;5005192;28;20026;-63
2022/03/29 01:08:49;;;;;;;36.67;17.17;;;9.30;99.90;;;;;;5011736;28;20026;-63
2022/03/29 01:11:15;;;;;;;43.33;18.58;;;9.30;99.90;;;;;;5013051;28;20034;-62
2022/03/29 01:13:44;;;;;;;39.55;17.92;;;9.30;99.90;;;;;;5005617;28;20030;-62
2022/03/29 01:18:55;;;;;;;39.20;16.65;;;9.20;99.90;;;;;;5013039;28;20037;-62
2022/03/29 01:21:25;;;;;;;34.60;16.48;;;9.20;99.90;;;;;;5012060;28;20994;-63
2022/03/29 01:23:51;;;;;;;39.70;17.40;;;9.20;99.90;;;;;;5007661;28;20100;-63
2022/03/29 01:26:17;;;;;;;37.15;17.30;;;9.20;99.90;;;;;;5010853;28;20128;-63
2022/03/29 01:28:44;;;;;;;39.67;17.25;;;9.20;99.90;;;;;;5004002;28;20105;-63
2022/03/29 01:31:11;;;;;;;36.78;17.83;;;9.20;99.90;;;;;;5000802;28;20030;-62
2022/03/29 01:33:40;;;;;;;37.70;16.75;;;9.20;99.90;;;;;;5002583;28;20517;-62
2022/03/29 01:36:06;;;;;;;39.08;19.13;;;9.20;99.90;;;;;;5012931;28;20458;-63
2022/03/29 01:38:32;;;;;;;38.85;17.08;;;9.20;99.90;;;;;;5012500;28;20034;-63
2022/03/29 01:41:03;;;;;;;38.75;17.52;;;9.20;99.90;;;;;;5012003;28;20080;-62
2022/03/29 01:43:29;;;;;;;37.35;19.60;;;9.30;99.90;;;;;;5010715;28;20026;-62
2022/03/29 01:45:54;;;;;;;40.97;18.52;;;9.30;99.90;;;;;;5013151;28;20455;-62
2022/03/29 01:48:20;;;;;;;41.28;17.83;;;9.30;99.90;;;;;;5012794;28;20116;-62
2022/03/29 01:50:48;;;;;;;37.35;18.30;;;9.30;99.90;;;;;;5015612;28;20033;-66
2022/03/29 01:53:27;;;;;;;38.92;16.80;;;9.30;99.90;;;;;;5031614;28;20032;-65
2022/03/29 01:55:58;;;;;;;37.13;16.83;;;9.30;99.90;;;;;;5020755;28;20030;-65
2022/03/29 01:58:31;;;;;;;38.65;17.88;;;9.30;99.90;;;;;;5015567;28;20055;-62
2022/03/29 02:00:57;;;;;;;40.42;17.63;;;9.20;99.90;;;;;;5016950;28;20100;-62
2022/03/29 02:03:22;;;;;;;38.22;17.55;;;9.30;99.90;;;;;;5016795;28;20030;-63
2022/03/29 02:05:49;;;;;;;41.85;17.75;;;9.30;99.90;;;;;;5017268;28;20033;-63
2022/03/29 02:08:15;;;;;;;40.50;18.25;;;9.30;99.90;;;;;;5016564;28;20374;-63
2022/03/29 02:10:40;;;;;;;42.42;17.83;;;9.30;99.90;;;;;;5015801;28;20029;-63
2022/03/29 02:13:09;;;;;;;42.28;17.92;;;9.30;99.90;;;;;;5015118;28;20026;-62
2022/03/29 02:15:38;;;;;;;42.13;19.40;;;9.30;99.90;;;;;;5016773;28;20029;-62
2022/03/29 02:18:04;;;;;;;42.38;18.45;;;9.20;99.90;;;;;;5017301;28;20029;-62
2022/03/29 02:20:30;;;;;;;45.33;19.50;;;9.20;99.90;;;;;;5022937;28;20036;-62
2022/03/29 02:23:06;;;;;;;39.17;17.38;;;9.20;99.90;;;;;;5021505;28;20106;-63
2022/03/29 02:25:32;;;;;;;38.80;17.77;;;9.20;99.90;;;;;;5016692;28;20053;-63
2022/03/29 02:27:58;;;;;;;43.47;19.13;;;9.10;99.90;;;;;;5015939;28;20504;-63
2022/03/29 02:30:24;;;;;;;44.80;18.38;;;9.10;99.90;;;;;;5024461;28;20061;-62
2022/03/29 02:32:49;;;;;;;45.60;19.75;;;9.10;99.90;;;;;;5021040;28;20061;-62
2022/03/29 02:35:15;;;;;;;45.63;19.27;;;9.10;99.90;;;;;;5015775;28;20386;-62
2022/03/29 02:37:41;;;;;;;44.38;18.85;;;9.10;99.90;;;;;;5016523;28;20030;-62
2022/03/29 02:40:09;;;;;;;43.63;19.52;;;9.10;99.90;;;;;;5015343;28;20504;-62
2022/03/29 02:42:46;;;;;;;41.33;17.83;;;9.10;99.90;;;;;;5015204;28;20109;-62
2022/03/29 02:45:16;;;;;;;44.13;19.17;;;9.10;99.90;;;;;;5015886;28;20040;-63
2022/03/29 02:47:46;;;;;;;41.20;19.15;;;9.10;99.90;;;;;;5015674;28;20026;-63
2022/03/29 02:50:12;;;;;;;40.13;17.42;;;9.20;99.90;;;;;;5016053;28;20088;-62
2022/03/29 02:53:01;;;;;;;42.88;18.92;;;9.20;99.90;;;;;;5016369;28;20057;-62
2022/03/29 02:55:29;;;;;;;43.78;19.35;;;9.10;99.90;;;;;;5015164;28;20030;-63
2022/03/29 02:57:56;;;;;;;42.67;17.42;;;9.20;99.90;;;;;;5015911;28;20061;-62
2022/03/29 03:00:22;;;;;;;44.92;18.17;;;9.20;99.90;;;;;;5015513;28;20056;-62
2022/03/29 03:02:54;;;;;;;45.65;19.67;;;9.20;99.90;;;;;;5015800;28;20029;-62
2022/03/29 03:05:21;;;;;;;48.63;19.50;;;9.20;99.90;;;;;;5016135;28;20091;-63
2022/03/29 03:07:47;;;;;;;44.47;18.42;;;9.20;99.90;;;;;;5012501;28;20030;-62
2022/03/29 03:10:14;;;;;;;46.85;19.90;;;9.20;99.90;;;;;;5015719;28;20033;-63
2022/03/29 03:12:44;;;;;;;40.58;17.77;;;9.20;99.90;;;;;;5015502;28;20057;-63
2022/03/29 03:15:12;;;;;;;39.42;18.05;;;9.20;99.90;;;;;;5014605;28;20052;-62
2022/03/29 03:17:38;;;;;;;46.58;20.08;;;9.20;99.90;;;;;;5015769;28;20022;-62
2022/03/29 03:20:04;;;;;;;45.17;19.20;;;9.10;99.90;;;;;;5015026;28;20087;-62
2022/03/29 03:22:30;;;;;;;41.20;17.00;;;9.10;99.90;;;;;;5011221;28;20038;-61
2022/03/29 03:24:56;;;;;;;41.15;18.08;;;9.10;99.90;;;;;;4996055;28;20042;-62
2022/03/29 03:27:22;;;;;;;42.13;19.23;;;9.10;99.90;;;;;;5003156;28;20026;-62
2022/03/29 03:29:47;;;;;;;40.70;19.05;;;9.00;99.90;;;;;;5014710;28;20049;-63
2022/03/29 03:32:13;;;;;;;40.60;18.58;;;9.00;99.90;;;;;;5015603;28;20025;-62
2022/03/29 03:34:39;;;;;;;41.97;18.50;;;9.00;99.90;;;;;;5015258;28;20026;-65
2022/03/29 03:37:05;;;;;;;40.05;18.83;;;9.00;99.90;;;;;;5015198;28;20474;-63
2022/03/29 03:39:35;;;;;;;41.15;18.55;;;8.90;99.90;;;;;;5019722;28;20105;-66
2022/03/29 03:42:11;;;;;;;40.92;17.48;;;8.90;99.90;;;;;;5018607;28;20034;-66
2022/03/29 03:44:38;;;;;;;42.70;19.48;;;8.90;99.90;;;;;;5015351;28;20080;-64
2022/03/29 03:47:04;;;;;;;41.70;18.33;;;8.90;99.90;;;;;;5015095;28;20033;-63
2022/03/29 03:49:30;;;;;;;41.17;18.50;;;8.90;99.90;;;;;;5014732;28;20029;-67
2022/03/29 03:51:56;;;;;;;41.25;19.20;;;8.90;99.90;;;;;;5014387;28;20080;-65
2022/03/29 03:54:21;;;;;;;39.83;18.15;;;8.90;99.90;;;;;;5013532;28;20465;-65
2022/03/29 03:56:47;;;;;;;39.50;18.33;;;8.90;99.90;;;;;;5013661;28;20076;-66
2022/03/29 03:59:13;;;;;;;39.03;16.73;;;8.90;99.90;;;;;;5014760;28;20480;-64
2022/03/29 04:01:39;;;;;;;35.33;16.35;;;8.90;99.90;;;;;;5014962;28;20053;-63
2022/03/29 04:04:04;;;;;;;42.15;17.15;;;8.90;99.90;;;;;;5014002;28;20056;-67
2022/03/29 04:06:30;;;;;;;42.85;18.08;;;8.90;99.90;;;;;;5014419;28;20022;-63
2022/03/29 04:08:55;;;;;;;34.90;17.50;;;8.90;99.90;;;;;;5014417;28;20399;-64
2022/03/29 04:11:21;;;;;;;40.80;17.90;;;8.90;99.90;;;;;;5013156;28;20355;-64
2022/03/29 04:13:46;;;;;;;39.15;17.67;;;8.90;99.90;;;;;;5014849;28;20022;-66
2022/03/29 04:16:12;;;;;;;39.13;18.20;;;8.90;99.90;;;;;;5014074;28;20030;-63
2022/03/29 04:18:38;;;;;;;40.42;17.67;;;8.90;99.90;;;;;;5013281;28;20323;-61
2022/03/29 04:21:08;;;;;;;39.17;16.63;;;8.90;99.90;;;;;;5013012;28;20045;-64
2022/03/29 04:23:35;;;;;;;37.78;16.85;;;8.90;99.90;;;;;;5014023;28;20033;-66
2022/03/29 04:26:04;;;;;;;37.05;16.17;;;8.90;99.90;;;;;;5014309;28;20042;-63
2022/03/29 04:28:31;;;;;;;36.42;16.42;;;8.90;99.90;;;;;;5014642;28;20076;-66
2022/03/29 04:30:58;;;;;;;36.00;17.80;;;8.80;99.90;;;;;;5011509;28;20080;-66
2022/03/29 04:33:24;;;;;;;32.70;16.05;;;8.80;99.90;;;;;;5013893;28;20032;-64
2022/03/29 04:35:50;;;;;;;34.97;15.23;;;8.80;99.90;;;;;;5012886;28;20417;-62
2022/03/29 04:38:15;;;;;;;33.15;16.13;;;8.70;99.90;;;;;;5014086;28;20032;-64
2022/03/29 04:40:41;;;;;;;33.88;16.20;;;8.70;99.90;;;;;;5000907;28;20092;-65
2022/03/29 04:43:07;;;;;;;34.13;16.23;;;8.60;99.90;;;;;;5028251;28;20096;-63
2022/03/29 04:45:32;;;;;;;37.30;15.20;;;8.70;99.90;;;;;;5013827;28;20036;-66
2022/03/29 04:47:58;;;;;;;34.97;16.67;;;8.60;99.90;;;;;;5014111;28;20117;-64
2022/03/29 04:50:23;;;;;;;33.60;14.90;;;8.60;99.90;;;;;;5013127;28;20033;-67
2022/03/29 04:52:49;;;;;;;35.63;16.05;;;8.60;99.90;;;;;;5013477;28;20050;-65
2022/03/29 04:55:16;;;;;;;39.92;16.95;;;8.60;99.90;;;;;;5014446;28;20104;-63
2022/03/29 04:57:43;;;;;;;36.55;16.63;;;8.50;99.90;;;;;;5013819;28;20037;-67
2022/03/29 05:00:12;;;;;;;36.17;17.05;;;8.50;99.90;;;;;;5014415;28;20081;-64
2022/03/29 05:02:41;;;;;;;36.08;15.32;;;8.50;99.90;;;;;;5017801;28;20030;-64
2022/03/29 05:05:09;;;;;;;39.60;17.50;;;8.50;99.90;;;;;;5019588;28;20068;-67
2022/03/29 05:07:35;;;;;;;37.75;17.00;;;8.50;99.90;;;;;;5013255;28;20524;-63
2022/03/29 05:10:02;;;;;;;38.92;18.00;;;8.60;99.90;;;;;;5013197;28;20052;-66
2022/03/29 05:12:27;;;;;;;38.92;17.08;;;8.50;99.90;;;;;;5013125;28;20033;-64
2022/03/29 05:14:53;;;;;;;37.58;17.63;;;8.60;99.90;;;;;;5012859;28;20030;-63
2022/03/29 05:17:19;;;;;;;37.58;17.85;;;8.60;99.90;;;;;;5013268;28;20532;-65
2022/03/29 05:19:44;;;;;;;39.85;17.13;;;8.60;99.90;;;;;;5012846;28;20459;-63
2022/03/29 05:22:10;;;;;;;36.63;17.50;;;8.60;99.90;;;;;;5013070;28;20030;-66
2022/03/29 05:24:35;;;;;;;37.53;16.92;;;8.60;99.90;;;;;;5013749;28;20040;-64
2022/03/29 05:27:01;;;;;;;37.00;17.63;;;8.60;99.90;;;;;;5012215;28;20022;-62
2022/03/29 05:29:28;;;;;;;42.90;17.98;;;8.50;99.90;;;;;;5011757;28;20026;-62
2022/03/29 05:31:54;;;;;;;41.03;18.27;;;8.50;99.90;;;;;;5008699;28;20101;-65
2022/03/29 05:34:19;;;;;;;32.65;15.85;;;8.50;99.90;;;;;;5012797;28;20034;-65
2022/03/29 05:36:46;;;;;;;38.58;16.95;;;8.50;99.90;;;;;;5012607;28;20026;-64
2022/03/29 05:39:15;;;;;;;36.80;16.60;;;8.50;99.90;;;;;;5012850;28;20029;-63
2022/03/29 05:41:46;;;;;;;36.30;17.00;;;8.50;99.90;;;;;;5012233;28;20667;-65
2022/03/29 05:44:12;;;;;;;36.40;17.98;;;8.50;99.90;;;;;;5010085;28;20113;-66
2022/03/29 05:49:22;;;;;;;40.08;17.30;;;8.50;99.90;;;;;;5004761;28;20076;-68
2022/03/29 05:51:49;;;;;;;37.42;17.40;;;8.50;99.90;;;;;;5006873;28;20057;-64
2022/03/29 05:54:16;;;;;;;40.08;17.00;;;8.50;99.90;;;;;;5010365;28;20101;-65
2022/03/29 05:56:41;;;;;;;41.75;17.70;;;8.50;99.90;;;;;;5011406;28;20056;-64
2022/03/29 05:59:07;;;;;;;38.35;17.45;;;8.60;99.90;;;;;;5013137;28;20022;-67
2022/03/29 06:01:33;;;;;;;39.60;18.33;;;8.60;99.90;;;;;;5012078;28;20038;-64
2022/03/29 06:03:58;;;;;;;36.00;15.93;;;8.60;99.90;;;;;;5013196;28;20038;-64
2022/03/29 06:06:24;;;;;;;36.67;15.93;;;8.60;99.90;;;;;;5012564;28;20038;-67
2022/03/29 06:08:49;;;;;;;31.83;14.88;;;8.70;99.90;;;;;;5011763;28;20026;-66
2022/03/29 06:11:15;;;;;;;30.73;14.82;;;8.70;99.90;;;;;;5012520;28;20034;-64
2022/03/29 06:13:40;;;;;;;34.63;16.38;;;8.70;99.90;;;;;;5012810;28;20026;-68
2022/03/29 06:16:06;;;;;;;33.65;15.40;;;8.70;99.90;;;;;;5012491;28;20030;-64
2022/03/29 06:18:33;;;;;;;32.72;15.05;;;8.70;99.90;;;;;;5012764;28;20033;-65
2022/03/29 06:20:58;;;;;;;31.02;14.38;;;8.70;99.90;;;;;;5011874;28;20042;-68
2022/03/29 06:23:24;;;;;;;30.90;14.98;;;8.70;99.90;;;;;;5015894;28;20464;-63
2022/03/29 06:25:50;;;;;;;30.67;14.80;;;8.70;99.90;;;;;;5016602;28;20126;-66
2022/03/29 06:28:16;;;;;;;36.25;15.98;;;8.70;99.90;;;;;;5013075;28;20057;-65
2022/03/29 06:30:43;;;;;;;30.88;15.05;;;8.70;99.90;;;;;;5011092;28;20030;-63
2022/03/29 06:33:10;;;;;;;32.50;14.48;;;8.70;99.90;;;;;;5012768;28;20062;-63
2022/03/29 06:35:38;;;;;;;32.88;15.90;;;8.70;99.90;;;;;;5012771;28;20037;-63
2022/03/29 06:38:05;;;;;;;33.50;16.60;;;8.80;99.90;;;;;;5013128;28;20022;-64
2022/03/29 06:40:31;;;;;;;32.42;15.18;;;8.80;99.90;;;;;;5012462;28;20462;-63
2022/03/29 06:43:00;;;;;;;32.40;15.32;;;8.90;99.90;;;;;;5014631;28;20032;-62
2022/03/29 06:45:27;;;;;;;31.83;15.02;;;8.90;99.90;;;;;;5014149;28;20474;-62
2022/03/29 06:47:53;;;;;;;29.30;14.75;;;8.90;99.90;;;;;;5016076;28;20773;-61
2022/03/29 06:50:18;;;;;;;30.52;15.07;;;9.00;99.90;;;;;;5015810;28;20371;-62
2022/03/29 06:52:47;;;;;;;28.13;13.65;;;9.10;99.90;;;;;;5016346;28;20041;-64
2022/03/29 06:55:18;;;;;;;29.13;14.90;;;9.20;99.90;;;;;;5013606;28;20493;-63
2022/03/29 06:57:44;;;;;;;30.63;14.52;;;9.30;99.90;;;;;;5016000;28;20050;-63
2022/03/29 07:00:11;;;;;;;30.00;13.63;;;9.40;99.90;;;;;;5000358;28;20075;-65
2022/03/29 07:02:37;;;;;;;32.85;17.88;;;9.40;99.90;;;;;;5016005;28;20521;-66
2022/03/29 07:05:04;;;;;;;33.60;15.48;;;9.40;99.90;;;;;;5015448;28;20164;-62
2022/03/29 07:07:30;;;;;;;29.40;14.40;;;9.40;99.90;;;;;;5015992;28;20033;-64
2022/03/29 07:12:51;;;;;;;32.58;14.93;;;9.50;99.90;;;;;;5015216;28;20029;-64
2022/03/29 07:15:17;;;;;;;30.15;14.52;;;9.50;99.90;;;;;;5014595;28;20037;-63
2022/03/29 07:17:44;;;;;;;33.08;14.63;;;9.40;99.90;;;;;;5031017;28;20141;-63
2022/03/29 07:20:11;;;;;;;26.67;14.35;;;9.40;99.90;;;;;;5015080;28;20121;-63
2022/03/29 07:22:36;;;;;;;28.23;13.70;;;9.40;99.90;;;;;;5015459;28;20026;-64
2022/03/29 07:25:02;;;;;;;29.95;15.02;;;9.40;99.90;;;;;;5014352;28;20108;-63
2022/03/29 07:27:28;;;;;;;31.85;13.98;;;9.40;99.90;;;;;;5023769;28;20071;-62
2022/03/29 07:29:53;;;;;;;28.05;14.75;;;9.50;99.90;;;;;;5018764;28;20105;-65
2022/03/29 07:32:19;;;;;;;27.52;14.15;;;9.50;99.90;;;;;;5014251;28;20026;-64
2022/03/29 07:34:44;;;;;;;31.70;15.73;;;9.60;99.90;;;;;;5014301;28;20072;-62
2022/03/29 07:37:10;;;;;;;31.42;15.05;;;9.60;99.90;;;;;;5015622;28;20125;-63
2022/03/29 07:39:36;;;;;;;28.27;14.13;;;9.60;99.90;;;;;;5014607;28;20038;-65
2022/03/29 07:42:01;;;;;;;28.05;14.48;;;9.60;99.90;;;;;;5008811;28;20030;-65
2022/03/29 07:44:27;;;;;;;27.73;14.68;;;9.50;99.90;;;;;;5013839;28;20081;-63
2022/03/29 07:46:52;;;;;;;29.00;15.90;;;9.50;99.90;;;;;;5010370;28;20037;-65
2022/03/29 07:49:18;;;;;;;31.95;15.95;;;9.70;99.90;;;;;;5012938;28;20521;-65
2022/03/29 07:51:44;;;;;;;32.35;15.75;;;9.80;99.90;;;;;;5013766;28;20157;-63
2022/03/29 07:54:09;;;;;;;31.60;15.52;;;9.90;99.90;;;;;;5012388;28;20049;-65
2022/03/29 07:56:35;;;;;;;28.65;14.63;;;10.00;99.90;;;;;;5013327;28;20109;-63
2022/03/29 07:59:00;;;;;;;30.85;14.60;;;10.10;99.90;;;;;;5013243;28;20030;-66
2022/03/29 08:01:28;;;;;;;31.70;15.40;;;10.10;99.90;;;;;;5014007;28;20046;-61
2022/03/29 08:03:55;;;;;;;31.05;15.40;;;10.00;99.90;;;;;;5013985;28;20026;-67
2022/03/29 08:06:21;;;;;;;32.78;15.05;;;9.90;99.90;;;;;;5014315;28;20034;-65
2022/03/29 08:08:47;;;;;;;35.42;15.50;;;10.00;99.90;;;;;;5013206;28;20514;-66
2022/03/29 08:11:13;;;;;;;26.70;14.05;;;10.00;99.90;;;;;;5013261;28;20092;-63
2022/03/29 08:13:39;;;;;;;29.08;13.27;;;10.20;99.90;;;;;;5013421;28;20458;-63
2022/03/29 08:16:05;;;;;;;27.35;13.32;;;10.30;99.90;;;;;;5012524;28;20120;-65
2022/03/29 08:18:31;;;;;;;33.08;14.10;;;10.40;99.90;;;;;;5013415;28;20038;-62
2022/03/29 08:20:58;;;;;;;27.27;14.38;;;10.50;99.90;;;;;;5012652;28;20069;-63
2022/03/29 08:23:25;;;;;;;28.58;13.60;;;10.50;99.90;;;;;;5012239;28;20101;-63
2022/03/29 08:25:51;;;;;;;28.38;14.13;;;10.60;99.90;;;;;;5013961;28;20042;-63
2022/03/29 08:28:19;;;;;;;26.33;14.10;;;10.90;99.90;;;;;;5013924;28;20030;-63
2022/03/29 08:30:45;;;;;;;27.35;13.05;;;11.10;99.90;;;;;;5013910;28;20034;-63
2022/03/29 08:33:11;;;;;;;27.55;14.88;;;11.40;99.90;;;;;;5025491;28;20068;-63
2022/03/29 08:35:37;;;;;;;27.60;13.15;;;11.60;99.90;;;;;;5032138;28;20369;-63
2022/03/29 08:38:03;;;;;;;27.05;14.80;;;11.90;99.90;;;;;;5033193;28;20120;-64
2022/03/29 08:40:29;;;;;;;27.60;13.63;;;12.20;99.90;;;;;;5013655;28;20096;-64
2022/03/29 08:42:58;;;;;;;28.15;15.50;;;12.40;99.90;;;;;;5011659;28;20474;-63
2022/03/29 08:45:26;;;;;;;28.63;14.45;;;12.50;99.90;;;;;;5013577;28;20025;-63
2022/03/29 08:47:56;;;;;;;25.13;13.63;;;12.50;99.90;;;;;;5011857;28;20030;-63
2022/03/29 08:50:23;;;;;;;24.02;13.30;;;12.60;99.90;;;;;;5011377;28;20436;-64
2022/03/29 08:52:51;;;;;;;29.35;13.90;;;12.90;99.90;;;;;;5024682;28;20459;-63
2022/03/29 08:55:17;;;;;;;26.25;13.60;;;13.10;99.90;;;;;;5011019;28;20042;-63
2022/03/29 08:57:42;;;;;;;27.40;14.35;;;13.10;99.90;;;;;;5012970;28;20482;-63
2022/03/29 09:00:08;;;;;;;25.92;13.98;;;13.10;99.90;;;;;;5012810;28;20037;-63
2022/03/29 09:02:36;;;;;;;30.42;13.95;;;13.10;99.90;;;;;;5012954;28;20030;-63
2022/03/29 09:05:16;;;;;;;28.08;14.05;;;13.20;99.90;;;;;;5012259;28;20033;-63
2022/03/29 09:08:03;;;;;;;26.27;13.25;;;13.30;99.90;;;;;;5012826;28;20501;-67
2022/03/29 09:10:41;;;;;;;27.67;14.27;;;13.40;99.90;;;;;;5011730;28;20037;-68
2022/03/29 09:13:33;;;;;;;27.70;13.98;;;13.40;99.90;;;;;;5012337;28;20057;-64
2022/03/29 09:16:01;;;;;;;27.10;13.63;;;13.50;99.90;;;;;;5011024;28;20068;-65
2022/03/29 09:18:27;;;;;;;28.35;14.60;;;13.80;99.90;;;;;;5012680;28;20022;-66
2022/03/29 09:21:25;;;;;;;27.73;15.20;;;14.30;99.90;;;;;;5012581;28;20084;-66
2022/03/29 09:24:09;;;;;;;25.38;12.88;;;14.90;99.90;;;;;;4987787;28;20111;-63
2022/03/29 09:26:38;;;;;;;24.55;13.70;;;15.20;99.90;;;;;;5006189;28;20113;-62
2022/03/29 09:29:21;;;;;;;27.15;13.70;;;15.80;99.90;;;;;;5019858;28;20087;-67
2022/03/29 09:32:00;;;;;;;24.73;14.13;;;16.60;98.90;;;;;;5016845;28;20030;-65
2022/03/29 09:34:28;;;;;;;25.38;14.32;;;17.20;98.20;;;;;;5012577;28;20026;-63
2022/03/29 09:36:53;;;;;;;24.73;14.25;;;18.10;96.40;;;;;;5012575;28;20359;-66
2022/03/29 09:39:34;;;;;;;26.00;14.30;;;18.90;95.10;;;;;;5011441;28;20029;-65
2022/03/29 09:42:02;;;;;;;26.85;15.43;;;19.40;94.20;;;;;;5009812;28;20543;-66
2022/03/29 09:44:43;;;;;;;26.67;14.45;;;19.50;93.40;;;;;;5012124;28;20463;-63
2022/03/29 09:47:13;;;;;;;25.33;13.75;;;19.60;92.90;;;;;;5018288;28;20040;-66
2022/03/29 09:50:01;;;;;;;25.10;14.30;;;19.60;92.50;;;;;;5012227;28;20463;-65
2022/03/29 09:52:34;;;;;;;27.25;15.75;;;19.40;92.50;;;;;;5027175;28;20037;-66
2022/03/29 09:55:13;;;;;;;24.20;14.30;;;19.20;92.20;;;;;;5024352;28;20117;-65
2022/03/29 09:57:54;;;;;;;24.73;14.35;;;19.10;92.40;;;;;;5011702;28;20022;-65
2022/03/29 10:00:43;;;;;;;25.90;14.35;;;19.20;92.00;;;;;;5012542;28;20045;-65
2022/03/29 10:03:10;;;;;;;26.67;14.80;;;19.40;91.40;;;;;;5011603;28;20413;-66
2022/03/29 10:05:39;;;;;;;26.45;14.77;;;19.10;91.60;;;;;;5002721;28;20057;-64
2022/03/29 10:11:01;;;;;;;26.25;14.50;;;18.60;91.90;;;;;;5011783;28;20162;-67
2022/03/29 10:13:28;;;;;;;25.80;15.35;;;18.40;92.20;;;;;;5010545;28;20527;-65
2022/03/29 10:15:55;;;;;;;25.38;14.70;;;18.30;92.00;;;;;;5009403;28;20473;-63
2022/03/29 10:18:22;;;;;;;26.17;13.48;;;18.10;92.30;;;;;;5011049;28;20509;-64
2022/03/29 10:20:48;;;;;;;28.17;14.20;;;17.90;92.20;;;;;;5013851;28;20048;-65
2022/03/29 10:23:14;;;;;;;23.20;12.95;;;17.90;92.60;;;;;;5016081;28;20030;-65
2022/03/29 10:25:41;;;;;;;26.98;14.52;;;18.70;91.60;;;;;;5014173;28;20046;-63
2022/03/29 10:28:08;;;;;;;27.40;15.07;;;19.30;90.80;;;;;;5000742;28;20033;-63
2022/03/29 10:30:41;;;;;;;25.55;14.85;;;19.90;90.50;;;;;;5024928;28;20029;-63
2022/03/29 10:33:26;;;;;;;24.67;14.32;;;20.10;89.90;;;;;;5028237;28;20029;-66
2022/03/29 10:36:07;;;;;;;25.38;14.13;;;20.60;90.00;;;;;;5013306;28;20030;-66
2022/03/29 10:38:42;;;;;;;24.30;13.93;;;21.50;87.30;;;;;;5004420;28;20514;-64
2022/03/29 10:41:29;;;;;;;30.92;15.75;;;21.90;85.60;;;;;;5015605;28;20049;-63
2022/03/29 10:44:15;;;;;;;26.27;15.73;;;21.90;85.00;;;;;;5007860;28;20053;-62
2022/03/29 10:46:45;;;;;;;25.45;15.68;;;21.70;84.90;;;;;;5013940;28;20033;-64
2022/03/29 10:49:31;;;;;;;26.52;15.73;;;22.00;84.20;;;;;;5012843;28;20386;-67
2022/03/29 10:52:10;;;;;;;27.60;14.68;;;22.60;82.30;;;;;;5024826;28;20030;-63
2022/03/29 10:54:42;;;;;;;25.08;15.25;;;22.80;80.20;;;;;;5034926;28;20446;-63
2022/03/29 10:57:16;;;;;;;25.77;15.68;;;22.80;79.50;;;;;;5026338;28;20084;-63
2022/03/29 10:59:42;;;;;;;31.52;16.95;;;22.40;80.10;;;;;;5015478;28;20028;-61
2022/03/29 11:02:15;;;;;;;27.90;16.75;;;22.00;81.00;;;;;;5021982;28;20026;-65
2022/03/29 11:05:10;;;;;;;29.30;15.88;;;21.80;81.40;;;;;;5010988;28;20036;-63
2022/03/29 11:07:59;;;;;;;25.30;15.38;;;21.40;81.50;;;;;;5013444;28;20022;-64
2022/03/29 11:10:38;;;;;;;28.35;17.10;;;21.40;80.90;;;;;;5011932;28;20041;-63
2022/03/29 11:13:29;;;;;;;31.75;16.08;;;21.10;80.80;;;;;;5014499;28;20033;-64
2022/03/29 11:16:01;;;;;;;28.50;16.73;;;20.70;80.80;;;;;;5014963;28;20076;-65
2022/03/29 11:18:33;;;;;;;31.52;17.70;;;20.40;81.70;;;;;;5014292;28;20022;-63
2022/03/29 11:21:05;;;;;;;;;;;20.00;82.70;;;;;;5015326;28;20121;-64
2022/03/29 11:23:40;;;;;;;32.03;16.67;;;19.50;83.90;;;;;;4995365;28;19906;-63
2022/03/29 11:26:10;;;;;;;31.45;17.25;;;19.10;84.70;;;;;;5010233;28;20399;-64
2022/03/29 11:28:36;;;;;;;32.63;17.83;;;18.90;85.70;;;;;;5013872;28;20053;-63
2022/03/29 11:31:02;;;;;;;29.83;17.75;;;19.00;85.50;;;;;;5014506;28;20025;-63
2022/03/29 11:33:34;;;;;;;30.55;17.35;;;19.10;84.90;;;;;;5013487;28;20029;-63
2022/03/29 11:36:00;;;;;;;30.23;17.40;;;19.20;85.00;;;;;;5014409;28;20052;-63
2022/03/29 11:38:30;;;;;;;29.15;17.05;;;19.60;84.00;;;;;;5009626;28;20104;-63
2022/03/29 11:40:55;;;;;;;30.95;16.98;;;20.00;83.30;;;;;;5012374;28;20044;-63
2022/03/29 11:43:24;;;;;;;27.17;17.05;;;20.50;83.30;;;;;;5019487;28;20029;-64
2022/03/29 11:45:52;;;;;;;27.77;16.08;;;21.10;81.70;;;;;;5021937;28;20026;-64
2022/03/29 11:48:20;;;;;;;27.77;17.05;;;21.40;80.10;;;;;;5014503;28;20492;-63
2022/03/29 11:50:52;;;;;;;30.48;17.60;;;21.50;79.90;;;;;;5013775;28;20414;-63
2022/03/29 11:53:25;;;;;;;26.27;16.10;;;21.60;79.10;;;;;;5000422;28;20105;-63
2022/03/29 11:56:02;;;;;;;27.40;16.85;;;21.90;78.40;;;;;;5013190;28;20053;-64
2022/03/29 11:58:34;;;;;;;28.48;17.10;;;22.20;77.40;;;;;;5008280;28;20029;-67
2022/03/29 12:01:02;;;;;;;30.15;16.17;;;22.30;77.60;;;;;;5009469;28;20038;-63
2022/03/29 12:03:38;;;;;;;29.42;16.48;;;22.50;76.50;;;;;;5009581;28;20125;-63
2022/03/29 12:06:08;;;;;;;33.67;16.80;;;22.50;76.40;;;;;;4995811;28;20030;-63
2022/03/29 12:08:47;;;;;;;28.33;18.08;;;22.50;76.40;;;;;;4999369;28;20038;-63
2022/03/29 12:11:15;;;;;;;29.20;17.80;;;22.70;75.80;;;;;;5007347;28;20030;-63
2022/03/29 12:13:43;;;;;;;28.27;16.40;;;22.70;75.20;;;;;;5013246;28;20088;-62
2022/03/29 12:16:30;;;;;;;29.75;16.77;;;22.60;74.70;;;;;;5013242;28;20088;-62
2022/03/29 12:18:56;;;;;;;26.65;16.23;;;22.60;74.10;;;;;;5011229;28;20105;-63
2022/03/29 12:21:23;;;;;;;31.08;17.25;;;22.50;74.30;;;;;;5013030;28;20558;-62
2022/03/29 12:24:00;;;;;;;27.65;16.73;;;22.50;74.30;;;;;;5012694;28;20041;-63
2022/03/29 12:26:27;;;;;;;29.85;16.73;;;22.50;74.10;;;;;;5007022;28;20050;-66
2022/03/29 12:28:53;;;;;;;27.58;17.45;;;22.50;74.80;;;;;;5028148;28;20053;-62
2022/03/29 12:31:20;;;;;;;27.95;16.58;;;22.50;74.90;;;;;;5013047;28;20100;-64
2022/03/29 12:33:46;;;;;;;27.15;16.58;;;22.50;74.50;;;;;;5012479;28;20026;-65
2022/03/29 12:36:16;;;;;;;26.92;16.65;;;22.50;74.80;;;;;;5013243;28;20050;-63
2022/03/29 12:38:51;;;;;;;30.55;17.67;;;22.70;73.40;;;;;;5012507;28;20022;-63
2022/03/29 12:41:46;;;;;;;27.40;16.95;;;22.70;72.90;;;;;;5012886;28;20056;-63
2022/03/29 12:44:16;;;;;;;27.98;16.48;;;22.70;72.70;;;;;;5013255;28;20068;-64
2022/03/29 12:46:43;;;;;;;27.52;15.93;;;22.60;72.60;;;;;;5013756;28;20092;-63
2022/03/29 12:49:10;;;;;;;29.52;16.70;;;22.40;72.30;;;;;;5013411;28;20022;-63
2022/03/29 12:51:38;;;;;;;27.92;17.05;;;22.10;73.10;;;;;;5013395;28;20088;-64